createdAt,value
2023-05-14T00:00:34.349Z,8.19
2023-05-14T00:03:01.369Z,8.08
2023-05-14T00:05:28.284Z,8.01
2023-05-14T00:07:55.119Z,7.90
2023-05-14T00:10:22.338Z,7.90
2023-05-14T00:12:49.393Z,7.75
2023-05-14T00:15:16.264Z,7.69
2023-05-14T00:17:43.460Z,7.62
2023-05-14T00:20:12.360Z,7.53
2023-05-14T00:22:40.363Z,7.69
2023-05-14T00:25:08.899Z,7.63
2023-05-14T00:27:37.977Z,7.45
2023-05-14T00:30:07.194Z,7.41
2023-05-14T00:32:34.221Z,7.56
2023-05-14T00:35:03.247Z,7.54
2023-05-14T00:37:30.476Z,7.49
2023-05-14T00:39:57.414Z,7.38
2023-05-14T00:42:24.331Z,7.38
2023-05-14T00:44:51.149Z,7.56
2023-05-14T00:47:18.133Z,7.54
2023-05-14T00:49:45.887Z,7.59
2023-05-14T00:52:13.281Z,7.57
2023-05-14T00:54:40.440Z,7.53
2023-05-14T00:57:07.568Z,7.44
2023-05-14T00:59:34.782Z,7.23
2023-05-14T01:02:02.219Z,7.25
2023-05-14T01:04:29.655Z,7.14
2023-05-14T01:06:59.392Z,7.21
2023-05-14T01:09:35.374Z,7.23
2023-05-14T01:12:02.282Z,7.24
2023-05-14T01:14:38.406Z,6.88
2023-05-14T01:17:06.601Z,6.81
2023-05-14T01:19:44.309Z,6.79
2023-05-14T01:22:12.373Z,6.31
2023-05-14T01:24:39.316Z,6.84
2023-05-14T01:27:27.914Z,6.84
2023-05-14T01:30:10.217Z,6.70
2023-05-14T01:32:39.144Z,6.54
2023-05-14T01:35:08.211Z,6.60
2023-05-14T01:37:36.802Z,6.61
2023-05-14T01:40:05.493Z,6.55
2023-05-14T01:42:33.010Z,6.99
2023-05-14T01:45:00.103Z,6.94
2023-05-14T01:47:27.112Z,6.79
2023-05-14T01:49:53.978Z,6.95
2023-05-14T01:52:21.573Z,6.76
2023-05-14T01:54:48.895Z,6.36
2023-05-14T01:57:15.885Z,6.47
2023-05-14T01:59:42.761Z,6.67
2023-05-14T02:02:09.585Z,6.48
2023-05-14T02:04:36.466Z,6.47
2023-05-14T02:07:03.863Z,6.32
2023-05-14T02:09:30.991Z,6.29
2023-05-14T02:11:58.397Z,6.43
2023-05-14T02:14:25.244Z,6.23
2023-05-14T02:16:52.165Z,6.50
2023-05-14T02:19:19.132Z,6.13
2023-05-14T02:21:46.144Z,6.46
2023-05-14T02:24:13.019Z,6.36
2023-05-14T02:26:39.923Z,6.27
2023-05-14T02:29:06.793Z,6.31
2023-05-14T02:31:33.936Z,6.23
2023-05-14T02:34:04.798Z,6.34
2023-05-14T02:36:32.096Z,6.28
2023-05-14T02:38:59.846Z,6.08
2023-05-14T02:41:27.059Z,6.36
2023-05-14T02:43:54.336Z,6.31
2023-05-14T02:46:21.429Z,6.21
2023-05-14T02:48:48.328Z,6.21
2023-05-14T02:51:15.161Z,6.00
2023-05-14T02:53:42.113Z,6.06
2023-05-14T02:56:09.259Z,6.03
2023-05-14T02:58:36.185Z,5.92
2023-05-14T03:01:03.220Z,5.74
2023-05-14T03:03:30.976Z,5.83
2023-05-14T03:05:58.257Z,5.84
2023-05-14T03:08:25.154Z,5.85
2023-05-14T03:10:52.028Z,5.78
2023-05-14T03:13:20.925Z,5.88
2023-05-14T03:15:48.774Z,5.78
2023-05-14T03:18:15.753Z,5.76
2023-05-14T03:20:42.617Z,5.56
2023-05-14T03:23:09.564Z,5.63
2023-05-14T03:25:36.593Z,5.63
2023-05-14T03:28:03.748Z,5.73
2023-05-14T03:30:31.155Z,5.49
2023-05-14T03:32:58.216Z,5.41
2023-05-14T03:35:25.100Z,5.40
2023-05-14T03:37:53.243Z,5.42
2023-05-14T03:40:20.150Z,5.49
2023-05-14T03:42:46.949Z,5.25
2023-05-14T03:45:15.829Z,5.53
2023-05-14T03:47:42.789Z,5.14
2023-05-14T03:50:09.840Z,5.12
2023-05-14T03:52:36.759Z,5.23
2023-05-14T03:55:04.047Z,5.24
2023-05-14T03:57:30.943Z,4.92
2023-05-14T03:59:57.821Z,5.31
2023-05-14T04:02:24.731Z,5.25
2023-05-14T04:04:51.726Z,5.58
2023-05-14T04:07:20.430Z,5.68
2023-05-14T04:09:47.286Z,5.81
2023-05-14T04:12:14.228Z,5.74
2023-05-14T04:14:41.229Z,5.83
2023-05-14T04:17:08.115Z,5.80
2023-05-14T04:19:34.957Z,5.99
2023-05-14T04:22:03.140Z,5.78
2023-05-14T04:24:29.961Z,6.04
2023-05-14T04:26:56.813Z,5.99
2023-05-14T04:29:23.664Z,5.88
2023-05-14T04:31:50.573Z,6.26
2023-05-14T04:34:17.546Z,6.47
2023-05-14T04:36:44.388Z,6.49
2023-05-14T04:39:12.677Z,6.28
2023-05-14T04:41:39.626Z,6.50
2023-05-14T04:44:07.238Z,6.51
2023-05-14T04:46:34.194Z,6.46
2023-05-14T04:49:01.216Z,6.52
2023-05-14T04:51:28.171Z,6.84
2023-05-14T04:53:55.054Z,6.68
2023-05-14T04:56:21.891Z,6.64
2023-05-14T04:58:48.763Z,6.78
2023-05-14T05:01:16.025Z,6.92
2023-05-14T05:03:43.027Z,7.02
2023-05-14T05:06:09.968Z,7.07
2023-05-14T05:08:36.980Z,7.10
2023-05-14T05:11:04.299Z,7.24
2023-05-14T05:13:32.389Z,7.20
2023-05-14T05:15:59.377Z,7.28
2023-05-14T05:18:26.345Z,7.72
2023-05-14T05:20:53.215Z,7.69
2023-05-14T05:23:20.369Z,7.80
2023-05-14T05:25:47.220Z,7.86
2023-05-14T05:28:14.066Z,8.03
2023-05-14T05:30:41.312Z,8.32
2023-05-14T05:33:08.266Z,8.04
2023-05-14T05:35:35.262Z,8.49
2023-05-14T05:38:02.205Z,8.47
2023-05-14T05:40:29.184Z,8.68
2023-05-14T05:42:56.114Z,8.72
2023-05-14T05:45:23.176Z,8.81
2023-05-14T05:47:50.192Z,9.15
2023-05-14T05:50:18.870Z,9.16
2023-05-14T05:52:46.782Z,9.16
2023-05-14T05:55:13.820Z,9.43
2023-05-14T05:57:40.749Z,9.45
2023-05-14T06:00:13.970Z,9.53
2023-05-14T06:02:44.270Z,9.59
2023-05-14T06:05:11.772Z,9.55
2023-05-14T06:07:39.041Z,9.30
2023-05-14T06:10:06.692Z,9.38
2023-05-14T06:12:33.638Z,9.67
2023-05-14T06:15:00.494Z,9.75
2023-05-14T06:17:27.464Z,9.75
2023-05-14T06:19:54.364Z,9.56
2023-05-14T06:22:21.236Z,9.83
2023-05-14T06:24:48.572Z,9.64
2023-05-14T06:27:15.424Z,9.85
2023-05-14T06:29:42.325Z,9.91
2023-05-14T06:32:09.514Z,9.83
2023-05-14T06:34:36.488Z,10.10
2023-05-14T06:37:04.344Z,10.27
2023-05-14T06:39:31.272Z,10.16
2023-05-14T06:41:58.134Z,10.22
2023-05-14T06:44:25.027Z,10.16
2023-05-14T06:46:52.320Z,10.31
2023-05-14T06:49:19.390Z,10.34
2023-05-14T06:51:46.354Z,10.23
2023-05-14T06:54:13.381Z,10.22
2023-05-14T06:56:40.512Z,10.41
2023-05-14T06:59:07.406Z,10.42
2023-05-14T07:01:34.284Z,10.20
2023-05-14T07:04:01.206Z,10.36
2023-05-14T07:06:28.196Z,10.44
2023-05-14T07:08:55.400Z,10.44
2023-05-14T07:11:22.491Z,10.20
2023-05-14T07:13:49.403Z,10.40
2023-05-14T07:16:16.260Z,10.22
2023-05-14T07:18:44.057Z,10.38
2023-05-14T07:21:11.591Z,10.54
2023-05-14T07:23:41.489Z,10.51
2023-05-14T07:26:08.556Z,10.66
2023-05-14T07:28:35.532Z,10.69
2023-05-14T07:31:09.079Z,10.86
2023-05-14T07:33:36.739Z,10.94
2023-05-14T07:36:03.719Z,10.92
2023-05-14T07:38:31.276Z,10.71
2023-05-14T07:40:58.574Z,10.75
2023-05-14T07:43:26.070Z,10.76
2023-05-14T07:45:53.090Z,10.82
2023-05-14T07:48:20.015Z,10.86
2023-05-14T07:50:49.160Z,10.93
2023-05-14T07:53:16.094Z,10.97
2023-05-14T07:55:44.552Z,10.88
2023-05-14T07:58:11.640Z,10.91
2023-05-14T08:00:38.603Z,10.99
2023-05-14T08:03:05.622Z,10.68
2023-05-14T08:05:33.199Z,10.87
2023-05-14T08:08:00.041Z,10.97
2023-05-14T08:10:27.318Z,10.96
2023-05-14T08:12:54.538Z,11.01
2023-05-14T08:15:21.638Z,10.94
2023-05-14T08:17:48.607Z,10.97
2023-05-14T08:20:15.879Z,10.82
2023-05-14T08:22:42.771Z,10.91
2023-05-14T08:25:10.049Z,11.04
2023-05-14T08:27:36.970Z,10.98
2023-05-14T08:30:04.641Z,11.00
2023-05-14T08:32:31.700Z,10.67
2023-05-14T08:34:58.578Z,10.73
2023-05-14T08:37:25.547Z,10.80
2023-05-14T08:39:52.415Z,10.85
2023-05-14T08:42:22.001Z,10.92
2023-05-14T08:44:52.837Z,10.65
2023-05-14T08:47:22.253Z,10.84
2023-05-14T08:49:58.283Z,11.04
2023-05-14T08:52:25.267Z,10.55
2023-05-14T08:54:54.170Z,10.86
2023-05-14T08:57:21.722Z,10.79
2023-05-14T08:59:48.739Z,10.96
2023-05-14T09:02:17.649Z,10.88
2023-05-14T09:04:45.220Z,11.23
2023-05-14T09:07:12.456Z,11.08
2023-05-14T09:09:39.572Z,11.43
2023-05-14T09:12:06.842Z,11.58
2023-05-14T09:14:37.316Z,11.30
2023-05-14T09:17:04.997Z,11.12
2023-05-14T09:19:31.928Z,11.12
2023-05-14T09:21:59.736Z,11.19
2023-05-14T09:24:31.039Z,11.63
2023-05-14T09:26:58.781Z,12.03
2023-05-14T09:29:26.500Z,12.22
2023-05-14T09:31:54.466Z,12.35
2023-05-14T09:34:40.753Z,12.61
2023-05-14T09:37:09.354Z,12.82
2023-05-14T09:39:37.832Z,13.07
2023-05-14T09:42:05.603Z,13.20
2023-05-14T09:44:32.755Z,13.16
2023-05-14T09:46:59.792Z,13.20
2023-05-14T09:49:26.851Z,14.00
2023-05-14T09:51:53.898Z,13.32
2023-05-14T09:54:20.851Z,13.95
2023-05-14T09:56:47.664Z,14.00
2023-05-14T09:59:14.611Z,14.24
2023-05-14T10:01:43.817Z,14.49
2023-05-14T10:04:12.362Z,14.84
2023-05-14T10:06:40.536Z,15.33
2023-05-14T10:09:12.446Z,14.39
2023-05-14T10:11:44.138Z,14.28
2023-05-14T10:14:24.903Z,14.49
2023-05-14T10:16:53.935Z,14.90
2023-05-14T10:19:24.467Z,15.01
2023-05-14T10:22:04.473Z,14.90
2023-05-14T10:24:32.674Z,14.44
2023-05-14T10:26:59.926Z,13.88
2023-05-14T10:29:35.434Z,13.92
2023-05-14T10:32:10.309Z,14.24
2023-05-14T10:34:44.271Z,14.48
2023-05-14T10:37:15.012Z,14.24
2023-05-14T10:39:49.984Z,14.25
2023-05-14T10:42:19.251Z,14.11
2023-05-14T10:44:58.728Z,14.54
2023-05-14T10:47:29.669Z,14.14
2023-05-14T10:49:58.876Z,14.68
2023-05-14T10:52:26.505Z,15.48
2023-05-14T10:54:59.136Z,15.05
2023-05-14T10:57:30.089Z,15.10
2023-05-14T10:59:59.831Z,14.70
2023-05-14T11:02:27.849Z,14.60
2023-05-14T11:04:59.009Z,14.74
2023-05-14T11:07:31.918Z,15.53
2023-05-14T11:10:22.811Z,15.59
2023-05-14T11:12:51.268Z,15.30
2023-05-14T11:15:20.758Z,14.99
2023-05-14T11:17:48.731Z,15.71
2023-05-14T11:20:16.951Z,15.36
2023-05-14T11:22:45.091Z,15.44
2023-05-14T11:25:15.914Z,15.51
2023-05-14T11:27:47.148Z,15.26
2023-05-14T11:30:14.392Z,15.29
2023-05-14T11:32:41.850Z,15.07
2023-05-14T11:35:08.981Z,14.60
2023-05-14T11:37:35.952Z,14.75
2023-05-14T11:40:02.846Z,14.75
2023-05-14T11:42:29.779Z,14.68
2023-05-14T11:44:56.896Z,14.44
2023-05-14T11:47:23.849Z,14.04
2023-05-14T11:49:50.748Z,14.11
2023-05-14T11:52:19.710Z,14.25
2023-05-14T11:54:46.851Z,14.19
2023-05-14T11:57:21.190Z,14.33
2023-05-14T11:59:49.712Z,14.39
2023-05-14T12:02:18.460Z,14.35
2023-05-14T12:04:52.412Z,14.57
2023-05-14T12:07:19.414Z,14.42
2023-05-14T12:09:51.565Z,14.33
2023-05-14T12:12:20.360Z,14.46
2023-05-14T12:14:48.325Z,14.83
2023-05-14T12:17:23.095Z,15.15
2023-05-14T12:19:52.539Z,14.73
2023-05-14T12:22:22.505Z,14.91
2023-05-14T12:25:00.257Z,14.64
2023-05-14T12:27:29.792Z,14.58
2023-05-14T12:30:20.522Z,14.71
2023-05-14T12:32:54.065Z,14.47
2023-05-14T12:35:22.840Z,15.01
2023-05-14T12:37:50.129Z,15.01
2023-05-14T12:40:17.102Z,14.93
2023-05-14T12:42:44.031Z,15.15
2023-05-14T12:45:11.651Z,15.13
2023-05-14T12:47:38.666Z,15.28
2023-05-14T12:50:06.337Z,14.89
2023-05-14T12:52:38.501Z,15.28
2023-05-14T12:55:07.722Z,14.92
2023-05-14T12:57:35.770Z,15.48
2023-05-14T13:00:06.984Z,15.20
2023-05-14T13:02:43.054Z,15.24
2023-05-14T13:05:11.585Z,15.54
2023-05-14T13:07:39.094Z,15.98
2023-05-14T13:10:06.972Z,16.29
2023-05-14T13:12:34.219Z,17.01
2023-05-14T13:15:01.161Z,16.80
2023-05-14T13:17:28.232Z,15.94
2023-05-14T13:19:55.231Z,16.02
2023-05-14T13:22:22.114Z,15.99
2023-05-14T13:24:48.911Z,15.34
2023-05-14T13:27:15.735Z,15.27
2023-05-14T13:29:42.638Z,15.23
2023-05-14T13:32:09.457Z,15.47
2023-05-14T13:34:36.475Z,15.32
2023-05-14T13:37:04.157Z,15.00
2023-05-14T13:39:31.086Z,15.10
2023-05-14T13:41:58.117Z,15.32
2023-05-14T13:44:25.151Z,15.09
2023-05-14T13:46:52.131Z,15.52
2023-05-14T13:49:19.365Z,15.38
2023-05-14T13:51:46.299Z,15.41
2023-05-14T13:54:13.204Z,15.43
2023-05-14T13:56:40.483Z,15.34
2023-05-14T13:59:07.527Z,15.22
2023-05-14T14:01:34.495Z,15.69
2023-05-14T14:04:01.394Z,15.58
2023-05-14T14:06:28.245Z,15.37
2023-05-14T14:08:55.143Z,14.93
2023-05-14T14:11:22.288Z,15.21
2023-05-14T14:13:49.272Z,15.34
2023-05-14T14:16:16.535Z,15.41
2023-05-14T14:18:43.621Z,15.59
2023-05-14T14:21:10.698Z,16.06
2023-05-14T14:23:37.716Z,15.50
2023-05-14T14:26:04.586Z,15.29
2023-05-14T14:28:31.608Z,14.74
2023-05-14T14:30:58.732Z,15.24
2023-05-14T14:33:25.965Z,15.28
2023-05-14T14:35:53.178Z,15.18
2023-05-14T14:38:20.319Z,14.73
2023-05-14T14:40:47.240Z,14.82
2023-05-14T14:43:14.106Z,14.44
2023-05-14T14:45:41.065Z,14.40
2023-05-14T14:48:28.159Z,14.46
2023-05-14T14:50:55.644Z,14.60
2023-05-14T14:53:23.825Z,14.45
2023-05-14T14:55:51.425Z,14.53
2023-05-14T14:58:19.774Z,14.48
2023-05-14T15:00:47.422Z,14.49
2023-05-14T15:03:15.449Z,14.48
2023-05-14T15:05:42.666Z,14.81
2023-05-14T15:08:10.111Z,14.85
2023-05-14T15:10:38.490Z,14.81
2023-05-14T15:13:06.959Z,15.03
2023-05-14T15:15:35.300Z,14.85
2023-05-14T15:18:03.370Z,14.78
2023-05-14T15:20:30.833Z,14.69
2023-05-14T15:22:57.769Z,14.55
2023-05-14T15:25:25.726Z,15.25
2023-05-14T15:27:52.817Z,15.30
2023-05-14T15:30:19.794Z,15.18
2023-05-14T15:32:46.991Z,15.29
2023-05-14T15:35:14.373Z,15.27
2023-05-14T15:37:43.313Z,15.37
2023-05-14T15:40:11.294Z,15.29
2023-05-14T15:42:40.260Z,15.29
2023-05-14T15:45:07.929Z,15.12
2023-05-14T15:47:35.116Z,14.90
2023-05-14T15:50:02.399Z,14.88
2023-05-14T15:52:29.352Z,15.00
2023-05-14T15:54:57.643Z,14.93
2023-05-14T15:57:24.635Z,14.65
2023-05-14T15:59:51.816Z,14.93
2023-05-14T16:02:18.775Z,14.86
2023-05-14T16:04:45.655Z,14.88
2023-05-14T16:07:13.551Z,14.58
2023-05-14T16:09:40.676Z,14.47
2023-05-14T16:12:08.282Z,14.55
2023-05-14T16:14:35.520Z,14.32
2023-05-14T16:17:02.559Z,13.95
2023-05-14T16:19:29.684Z,14.01
2023-05-14T16:21:56.623Z,13.82
2023-05-14T16:24:23.500Z,13.95
2023-05-14T16:26:50.641Z,14.18
2023-05-14T16:29:17.811Z,14.00
2023-05-14T16:31:44.684Z,13.79
2023-05-14T16:34:11.606Z,13.71
2023-05-14T16:36:38.557Z,13.73
2023-05-14T16:39:07.671Z,13.54
2023-05-14T16:41:36.181Z,13.52
2023-05-14T16:44:03.665Z,13.40
2023-05-14T16:46:31.428Z,13.34
2023-05-14T16:48:58.451Z,13.46
2023-05-14T16:51:25.333Z,13.44
2023-05-14T16:53:52.247Z,13.52
2023-05-14T16:56:19.442Z,13.36
2023-05-14T16:58:46.295Z,13.34
2023-05-14T17:01:13.178Z,13.16
2023-05-14T17:03:40.014Z,13.34
2023-05-14T17:06:07.426Z,13.28
2023-05-14T17:08:35.791Z,13.34
2023-05-14T17:11:05.987Z,13.38
2023-05-14T17:13:33.596Z,13.29
2023-05-14T17:16:01.061Z,13.31
2023-05-14T17:18:28.472Z,13.34
2023-05-14T17:20:55.505Z,13.40
2023-05-14T17:23:22.349Z,13.55
2023-05-14T17:25:49.311Z,13.40
2023-05-14T17:28:16.242Z,13.27
2023-05-14T17:30:43.165Z,13.30
2023-05-14T17:33:10.178Z,13.22
2023-05-14T17:35:37.511Z,13.27
2023-05-14T17:38:04.724Z,13.30
2023-05-14T17:40:31.697Z,13.22
2023-05-14T17:42:58.681Z,13.31
2023-05-14T17:45:26.898Z,13.19
2023-05-14T17:47:54.118Z,13.01
2023-05-14T17:50:21.139Z,13.22
2023-05-14T17:52:48.274Z,13.22
2023-05-14T17:55:15.387Z,13.25
2023-05-14T17:57:42.436Z,13.29
2023-05-14T18:00:09.848Z,13.10
2023-05-14T18:02:39.739Z,13.21
2023-05-14T18:05:06.950Z,13.05
2023-05-14T18:07:33.897Z,12.94
2023-05-14T18:10:00.851Z,13.14
2023-05-14T18:12:27.766Z,12.98
2023-05-14T18:14:54.832Z,13.11
2023-05-14T18:17:21.839Z,12.92
2023-05-14T18:19:48.743Z,12.90
2023-05-14T18:22:15.898Z,12.94
2023-05-14T18:24:44.465Z,12.78
2023-05-14T18:27:14.457Z,12.80
2023-05-14T18:29:42.908Z,12.46
2023-05-14T18:32:09.793Z,12.50
2023-05-14T18:34:36.819Z,12.62
2023-05-14T18:37:03.767Z,12.43
2023-05-14T18:39:30.815Z,12.48
2023-05-14T18:41:57.730Z,12.29
2023-05-14T18:44:24.581Z,12.29
2023-05-14T18:46:51.761Z,12.14
2023-05-14T18:49:18.629Z,11.70
2023-05-14T18:51:45.729Z,11.72
2023-05-14T18:54:12.647Z,11.28
2023-05-14T18:56:45.499Z,11.24
2023-05-14T18:59:14.351Z,11.36
2023-05-14T19:01:41.296Z,11.59
2023-05-14T19:04:08.493Z,11.53
2023-05-14T19:06:36.403Z,11.61
2023-05-14T19:09:25.041Z,11.27
2023-05-14T19:11:53.742Z,11.33
2023-05-14T19:14:22.793Z,11.42
2023-05-14T19:16:50.255Z,11.25
2023-05-14T19:19:17.299Z,11.14
2023-05-14T19:21:44.297Z,11.08
2023-05-14T19:24:11.342Z,11.02
2023-05-14T19:26:38.464Z,11.00
2023-05-14T19:29:05.416Z,10.75
2023-05-14T19:31:32.551Z,10.82
2023-05-14T19:33:59.449Z,10.81
2023-05-14T19:36:26.504Z,10.69
2023-05-14T19:38:53.446Z,10.58
2023-05-14T19:41:21.855Z,10.74
2023-05-14T19:43:48.813Z,10.55
2023-05-14T19:46:15.932Z,10.56
2023-05-14T19:48:42.944Z,10.38
2023-05-14T19:51:09.968Z,10.38
2023-05-14T19:53:37.054Z,10.31
2023-05-14T19:56:04.125Z,10.21
2023-05-14T19:58:31.159Z,10.38
2023-05-14T20:00:58.979Z,10.41
2023-05-14T20:03:26.351Z,10.39
2023-05-14T20:05:54.322Z,10.22
2023-05-14T20:08:21.757Z,9.99
2023-05-14T20:10:48.913Z,9.83
2023-05-14T20:13:15.910Z,9.91
2023-05-14T20:15:45.696Z,9.84
2023-05-14T20:18:13.283Z,9.91
2023-05-14T20:20:40.248Z,10.01
2023-05-14T20:23:07.192Z,9.98
2023-05-14T20:25:34.759Z,9.97
2023-05-14T20:28:01.902Z,10.07
2023-05-14T20:30:28.894Z,10.10
2023-05-14T20:32:56.115Z,10.12
2023-05-14T20:35:23.564Z,10.09
2023-05-14T20:37:50.880Z,10.04
2023-05-14T20:40:17.912Z,10.21
2023-05-14T20:42:45.227Z,10.16
2023-05-14T20:45:12.127Z,10.08
2023-05-14T20:47:40.356Z,10.06
2023-05-14T20:50:07.914Z,10.13
2023-05-14T20:52:34.899Z,10.07
2023-05-14T20:55:02.502Z,10.07
2023-05-14T20:57:29.605Z,10.14
2023-05-14T20:59:57.067Z,10.21
2023-05-14T21:02:24.128Z,10.22
2023-05-14T21:04:51.488Z,10.32
2023-05-14T21:07:18.566Z,10.25
2023-05-14T21:09:50.998Z,9.98
2023-05-14T21:12:19.168Z,10.20
2023-05-14T21:14:46.475Z,9.86
2023-05-14T21:17:13.481Z,10.16
2023-05-14T21:19:40.393Z,10.18
2023-05-14T21:22:07.610Z,10.17
2023-05-14T21:24:34.564Z,10.12
2023-05-14T21:27:01.552Z,10.22
2023-05-14T21:29:28.595Z,10.25
2023-05-14T21:31:55.558Z,10.33
2023-05-14T21:34:22.609Z,10.18
2023-05-14T21:36:49.585Z,10.16
2023-05-14T21:39:16.532Z,10.20
2023-05-14T21:41:43.571Z,10.12
2023-05-14T21:44:10.528Z,10.12
2023-05-14T21:46:37.542Z,10.28
2023-05-14T21:49:04.668Z,10.23
2023-05-14T21:51:32.360Z,10.17
2023-05-14T21:53:59.471Z,10.08
2023-05-14T21:56:26.638Z,10.07
2023-05-14T21:58:55.751Z,9.94
2023-05-14T22:01:22.899Z,10.10
2023-05-14T22:03:49.941Z,10.05
2023-05-14T22:06:17.020Z,9.99
2023-05-14T22:08:43.942Z,10.03
2023-05-14T22:11:10.849Z,9.76
2023-05-14T22:13:41.116Z,9.63
2023-05-14T22:16:13.223Z,9.83
2023-05-14T22:18:41.466Z,9.68
2023-05-14T22:21:08.460Z,9.93
2023-05-14T22:23:35.461Z,9.90
2023-05-14T22:26:02.309Z,9.74
2023-05-14T22:28:29.180Z,10.00
2023-05-14T22:30:56.797Z,9.85
2023-05-14T22:33:23.733Z,9.97
2023-05-14T22:35:50.989Z,9.97
2023-05-14T22:38:18.008Z,10.06
2023-05-14T22:40:44.916Z,9.99
2023-05-14T22:43:11.906Z,9.97
2023-05-14T22:45:38.901Z,9.76
2023-05-14T22:48:06.125Z,9.45
2023-05-14T22:50:33.182Z,9.83
2023-05-14T22:53:00.156Z,9.65
2023-05-14T22:55:27.444Z,9.68
2023-05-14T22:57:54.568Z,9.63
2023-05-14T23:00:21.661Z,9.88
2023-05-14T23:02:48.560Z,9.90
2023-05-14T23:05:15.756Z,9.82
2023-05-14T23:07:42.918Z,9.80
2023-05-14T23:10:10.448Z,9.85
2023-05-14T23:12:37.407Z,9.90
2023-05-14T23:15:04.680Z,9.77
2023-05-14T23:17:31.643Z,9.78
2023-05-14T23:19:58.577Z,9.66
2023-05-14T23:22:25.536Z,9.82
2023-05-14T23:24:52.390Z,9.77
2023-05-14T23:27:19.424Z,9.53
2023-05-14T23:29:46.298Z,9.30
2023-05-14T23:32:13.262Z,9.29
2023-05-14T23:34:40.150Z,9.61
2023-05-14T23:37:07.140Z,9.55
2023-05-14T23:39:34.031Z,9.77
2023-05-14T23:42:01.072Z,9.53
2023-05-14T23:44:28.000Z,9.65
2023-05-14T23:46:54.997Z,9.60
2023-05-14T23:49:22.306Z,9.63
2023-05-14T23:51:49.126Z,9.74
2023-05-14T23:54:17.523Z,9.69
2023-05-14T23:56:44.662Z,9.73
2023-05-14T23:59:12.074Z,9.68
